• Join FlightAware (Why Join?)
  • Login
  • US Flag 
04:10AM EDT


 

Airport Tracker/Info


-or-


 

Live Flight TrackerFlight Track Log ✈ QLK307 ✈ 18-Jul-2013 ✈ YPDN / DRW - WPDL / DIL

Flight Track Log - Related Links

Times and Time Zones

All times are in EDT time to prevent confusion due to time zone crossing. See the QLK307 flight status page for this flight to view local times or setup timezone preferences in your user account.

Time Position Orientation Groundspeed Altitude Reporting Facility
EDT Latitude Longitude Course Direction KTS MPH feet Rate Location/Type
04:21PM -12.4261 130.9164 107° East 145 167 1,600  Level Aus ATC (RADAR)
04:21PM -12.4290 130.9260 102° East 171 197 2,000 1,860 Climbing FlightAware
04:22PM -12.4362 130.9655 102° East 173 199 3,500 1,620 Climbing Aus ATC (RADAR)
04:22PM -12.4250 130.9700 85° East 214 246 3,500 1,920 Level FlightAware
04:23PM -12.3880 130.9630 350° North 235 270 5,000 1,860 Climbing FlightAware
04:23PM -12.3630 130.9500 333° Northwest 275 316 5,400 1,740 Climbing FlightAware
04:24PM -12.3350 130.9340 331° Northwest 286 329 6,400 2,820 Climbing FlightAware
04:24PM -12.3060 130.9060 317° Northwest 285 328 7,900 3,300 Climbing FlightAware
04:25PM -12.2910 130.8730 295° West 268 308 9,700 2,400 Climbing FlightAware
04:25PM -12.2690 130.8190 295° West 297 342 10,800 1,380 Climbing FlightAware
04:25PM -12.2666 130.8132 295° West 279 321 10,800 1,260 Level Aus ATC (RADAR)
04:26PM -12.2340 130.7380 294° West 330 380 12,100 1,380 Climbing FlightAware
04:27PM -12.2110 130.6830 293° West 343 395 13,000 1,620 Climbing FlightAware
04:28PM -12.1908 130.6337 293° West 339 390 14,000 1,680 Climbing Aus ATC (RADAR)
04:28PM -12.1860 130.6240 293° West 345 397 14,200 1,620 Climbing FlightAware
04:28PM -12.1560 130.5510 293° West 350 403 15,600 1,620 Climbing FlightAware
04:29PM -12.1320 130.4940 293° West 357 411 16,500 1,620 Climbing FlightAware
04:30PM -12.1072 130.4355 293° West 352 405 17,600 1,680 Climbing Aus ATC (RADAR)
04:30PM -12.1000 130.4190 293° West 359 413 17,900 1,440 Climbing FlightAware
04:30PM -12.0750 130.3610 294° West 364 419 18,800 1,380 Climbing FlightAware
04:31PM -12.0370 130.2700 293° West 368 423 20,200 1,380 Climbing FlightAware
04:32PM -12.0134 130.2137 293° West 362 417 20,900 1,260 Climbing Aus ATC (RADAR)
04:32PM -12.0100 130.2070 293° West 372 428 21,000 1,260 Climbing FlightAware
04:33PM -11.9790 130.1340 293° West 376 433 22,000 1,200 Climbing FlightAware
04:34PM -11.9490 130.0640 294° West 381 438 22,800 1,020 Climbing FlightAware
04:34PM -11.9267 130.0095 294° West 374 430 23,300 960 Climbing Aus ATC (RADAR)
04:34PM -11.9230 130.0020 294° West 387 445 23,400 780 Climbing FlightAware
04:35PM -11.8970 129.9410 294° West 393 452 23,900 900 Climbing FlightAware
04:36PM -11.8620 129.8580 293° West 399 459 24,700 900 Climbing FlightAware
04:36PM -11.8350 129.7940 293° West 402 463 25,200 900 Climbing FlightAware
04:36PM -11.8322 129.7869 293° West 390 449 25,300 1,020 Climbing Aus ATC (RADAR)
04:37PM -11.7867 129.6826 293° West 395 455 26,300 900 Climbing Aus ATC (RADAR)
04:38PM -11.7740 129.6630 293° West 405 466 26,500 900 Climbing FlightAware
04:38PM -11.7323 129.5816 293° West 398 458 27,200 660 Climbing Aus ATC (RADAR)
04:39PM -11.7260 129.5700 293° West 412 474 27,400 120 Climbing FlightAware
04:40PM -11.6980 129.5170 298° West 412 474 27,400 1,140 Level FlightAware
04:40PM -11.6174 129.3648 298° West 411 473 29,000  Climbing Aus ATC (RADAR)
04:40PM -11.6610 129.4460 298° West 412 474 27,400 -2,640 Descending FlightAware
04:41PM -11.6340 129.3930 297° West 412 474 27,400  Level FlightAware
04:42PM -11.6060 129.3410 299° West 412 474 27,400  Level FlightAware
04:42PM -11.5690 129.2690 298° West 412 474 27,400 2,160 Level FlightAware
04:43PM -11.4353 129.0176 298° West 434 499 31,700 2,280 Climbing Aus ATC (RADAR)
04:45PM -11.3664 128.8876 298° West 435 501 32,700 900 Climbing Aus ATC (RADAR)
04:46PM -11.3045 128.7669 298° West 432 497 33,800 600 Climbing Aus ATC (RADAR)
04:47PM -11.2394 128.6518 300° West 413 475 34,000 60 Climbing Aus ATC (RADAR)
04:48PM -11.1757 128.5280 298° West 409 471 34,000  Level Aus ATC (RADAR)
04:49PM -11.1155 128.4140 298° West 407 468 34,000  Level Aus ATC (RADAR)
04:50PM -11.0412 128.2733 298° West 407 468 34,000  Level Aus ATC (RADAR)
04:51PM -10.9928 128.1837 299° West 420 483 34,000  Level Aus ATC (RADAR)
04:52PM -10.9306 128.0647 298° West 423 487 34,000  Level Aus ATC (RADAR)
04:54PM -10.8531 127.9196 299° West 421 484 34,000  Level Aus ATC (RADAR)
04:55PM -10.7943 127.8111 299° West 421 484 34,000  Level Aus ATC (RADAR)
04:56PM -10.7359 127.6907 296° West 424 488 34,000  Level Aus ATC (RADAR)
04:57PM -10.6647 127.5650 300° West 421 484 34,000  Level Aus ATC (RADAR)
04:58PM -10.6071 127.4438 296° West 455 524 34,000  Level Aus ATC (RADAR)
04:59PM -10.5582 127.3668 303° West 421 484 34,000  Level Aus ATC (RADAR)
05:02PM -10.1740 126.9865 150° Southeast 34,000  Level Aus ATC (Calculated)
05:04PM -10.3432 127.0846 150° Southeast  Level FlightAware Approximate
05:04PM -9.9700 126.7851 319° Northwest 34,000  Level Aus ATC (Calculated)
05:05PM -9.8846 126.7091 320° Northwest  Level Estimated
05:06PM -9.8045 126.6276 315° West  Level FlightAware Approximate
05:07PM -9.7243 126.5461 315° West  Level FlightAware Approximate
05:07PM -9.6296 126.4499 360° North 300  Level Aus ATC (Calculated)
05:08PM -9.5161 126.4499 North  Level FlightAware Approximate
05:09PM -9.6296 126.4499 180° South  Level FlightAware Approximate
05:10PM -9.5161 126.4499 North  Level FlightAware Approximate
05:10PM -9.3584 126.2188 360° North 300  Level Aus ATC (Calculated)
05:10PM -9.3584 126.2188 140° Southeast 300  Level Aus ATC (Calculated)
05:12PM -9.5090 126.3471 140° Southeast  Level FlightAware Approximate
05:13PM -9.5959 126.4212 140° Southeast  Level FlightAware Approximate
05:14PM -9.6828 126.4953 140° Southeast  Level FlightAware Approximate
05:15PM -9.5961 126.4209 320° Northwest  Level Estimated
05:16PM -9.5092 126.3469 320° Northwest  Level FlightAware Approximate
05:17PM -9.4223 126.2729 320° Northwest  Level FlightAware Approximate
05:18PM -9.3354 126.1989 320° Northwest  Level FlightAware Approximate
05:19PM -9.2485 126.1250 320° Northwest  Level FlightAware Approximate
05:19PM -8.5464 125.5248 360° North  Level Aus ATC (Calculated)
05:19PM -8.5464 125.5248 140° Southeast  Level Aus ATC (Calculated)
05:20PM -9.1615 126.0511 320° Northwest  Level FlightAware Approximate
05:21PM -8.5465 125.5247 49° Northeast  Level Estimated
05:22PM -8.5465 125.5247 48° Northeast  Level Estimated
05:23PM -8.5465 125.5247 48° Northeast  Level Estimated
05:24PM -8.5465 125.5247 48° Northeast  Level Estimated
05:25PM -8.5465 125.5247 48° Northeast  Level Estimated
05:26PM -8.5465 125.5247 48° Northeast  Level Estimated
05:27PM -8.5464 125.5248 229° Southwest  Level FlightAware Approximate
05:28PM -8.5465 125.5247 229° Southwest  Level Estimated
05:29PM -8.5464 125.5248 229° Southwest  Level FlightAware Approximate
05:30PM -8.5465 125.5247 229° Southwest  Level Estimated
05:31PM -8.5464 125.5248 229° Southwest  Level FlightAware Approximate
05:32PM -8.5465 125.5247 229° Southwest  Level Estimated
05:33PM -8.5464 125.5248 229° Southwest  Level FlightAware Approximate
05:34PM -8.5465 125.5247 229° Southwest  Level Estimated
05:35PM -8.5464 125.5248 229° Southwest  Level FlightAware Approximate
05:36PM -8.5465 125.5247 229° Southwest  Level Estimated